createdAt,value
2023-05-10T00:02:18.249Z,100721.00
2023-05-10T00:04:49.534Z,100724.78
2023-05-10T00:07:18.114Z,100725.50
2023-05-10T00:09:44.660Z,100729.69
2023-05-10T00:12:11.271Z,100720.63
2023-05-10T00:14:37.700Z,100719.66
2023-05-10T00:17:04.130Z,100718.81
2023-05-10T00:19:30.594Z,100711.22
2023-05-10T00:21:57.376Z,100713.56
2023-05-10T00:24:23.798Z,100706.09
2023-05-10T00:26:50.306Z,100710.13
2023-05-10T00:29:16.758Z,100704.28
2023-05-10T00:31:43.231Z,100700.34
2023-05-10T00:34:10.096Z,100694.25
2023-05-10T00:36:36.458Z,100694.75
2023-05-10T00:39:04.503Z,100693.75
2023-05-10T00:41:33.721Z,100688.75
2023-05-10T00:44:00.203Z,100692.81
2023-05-10T00:46:26.862Z,100691.34
2023-05-10T00:48:53.631Z,100688.31
2023-05-10T00:51:20.054Z,100695.22
2023-05-10T00:53:47.020Z,100686.94
2023-05-10T00:56:14.029Z,100683.75
2023-05-10T00:58:40.978Z,100679.00
2023-05-10T01:01:07.969Z,100680.56
2023-05-10T01:03:34.552Z,100671.28
2023-05-10T01:06:01.185Z,100679.00
2023-05-10T01:08:27.850Z,100672.13
2023-05-10T01:10:54.780Z,100674.25
2023-05-10T01:13:38.420Z,100671.53
2023-05-10T01:16:05.443Z,100665.88
2023-05-10T01:18:33.872Z,100663.13
2023-05-10T01:21:12.423Z,100659.28
2023-05-10T01:23:46.566Z,100659.28
2023-05-10T01:26:40.574Z,100652.16
2023-05-10T01:29:25.756Z,100660.94
2023-05-10T01:32:01.330Z,100654.00
2023-05-10T01:34:51.565Z,100655.81
2023-05-10T01:51:45.747Z,100639.16
2023-05-10T01:54:14.157Z,100644.38
2023-05-10T01:56:48.946Z,100648.84
2023-05-10T01:59:19.336Z,100643.72
2023-05-10T02:01:48.040Z,100646.72
2023-05-10T02:04:17.897Z,100628.09
2023-05-10T02:06:48.957Z,100642.59
2023-05-10T02:09:16.750Z,100628.16
2023-05-10T02:11:44.642Z,100622.16
2023-05-10T02:14:12.629Z,100642.06
2023-05-10T02:16:41.155Z,100630.59
2023-05-10T02:19:09.803Z,100641.94
2023-05-10T02:21:37.326Z,100639.03
2023-05-10T02:24:09.704Z,100623.09
2023-05-10T02:26:39.106Z,100632.25
2023-05-10T02:29:07.668Z,100618.25
2023-05-10T02:31:36.267Z,100619.53
2023-05-10T02:34:03.882Z,100622.94
2023-05-10T02:36:30.865Z,100633.91
2023-05-10T02:38:58.608Z,100624.59
2023-05-10T02:41:27.373Z,100634.16
2023-05-10T02:43:58.186Z,100625.09
2023-05-10T02:46:26.875Z,100619.53
2023-05-10T02:48:55.037Z,100624.13
2023-05-10T02:51:28.469Z,100622.41
2023-05-10T02:53:57.576Z,100610.47
2023-05-10T02:56:34.242Z,100630.72
2023-05-10T02:59:00.824Z,100623.09
2023-05-10T03:01:27.337Z,100624.88
2023-05-10T03:03:53.864Z,100623.28
2023-05-10T03:06:20.342Z,100618.59
2023-05-10T03:08:48.407Z,100627.38
2023-05-10T03:11:33.665Z,100616.72
2023-05-10T03:14:41.409Z,100629.25
2023-05-10T03:17:16.589Z,100616.56
2023-05-10T03:19:54.120Z,100624.41
2023-05-10T03:22:33.344Z,100617.88
2023-05-10T03:25:05.170Z,100620.94
2023-05-10T03:27:32.468Z,100608.94
2023-05-10T03:29:59.028Z,100610.78
2023-05-10T03:32:25.687Z,100629.16
2023-05-10T03:34:52.117Z,100610.38
2023-05-10T03:37:18.563Z,100612.09
2023-05-10T03:39:45.111Z,100613.31
2023-05-10T03:42:12.986Z,100600.66
2023-05-10T03:44:43.006Z,100625.28
2023-05-10T03:47:09.755Z,100606.94
2023-05-10T03:49:36.282Z,100614.06
2023-05-10T03:52:02.727Z,100602.09
2023-05-10T03:54:29.228Z,100596.44
2023-05-10T03:56:55.747Z,100604.63
2023-05-10T03:59:22.235Z,100602.81
2023-05-10T04:01:48.720Z,100613.09
2023-05-10T04:04:15.258Z,100600.66
2023-05-10T04:06:41.771Z,100610.31
2023-05-10T04:09:09.444Z,100602.59
2023-05-10T04:11:36.034Z,100606.09
2023-05-10T04:14:02.540Z,100598.63
2023-05-10T04:16:29.005Z,100595.53
2023-05-10T04:18:55.496Z,100591.16
2023-05-10T04:21:21.967Z,100594.41
2023-05-10T04:23:48.692Z,100586.81
2023-05-10T04:26:15.220Z,100610.03
2023-05-10T04:28:41.748Z,100591.56
2023-05-10T04:31:20.779Z,100605.25
2023-05-10T04:33:47.249Z,100585.72
2023-05-10T04:36:13.760Z,100600.78
2023-05-10T04:38:40.319Z,100596.56
2023-05-10T04:41:08.774Z,100591.94
2023-05-10T04:43:35.875Z,100590.19
2023-05-10T04:46:02.398Z,100600.97
2023-05-10T04:48:29.335Z,100595.81
2023-05-10T04:50:55.945Z,100600.13
2023-05-10T04:53:22.360Z,100582.31
2023-05-10T04:55:49.129Z,100580.06
2023-05-10T04:58:15.713Z,100584.50
2023-05-10T05:00:42.685Z,100596.81
2023-05-10T05:03:09.522Z,100600.25
2023-05-10T05:05:36.106Z,100591.50
2023-05-10T05:08:02.611Z,100595.34
2023-05-10T05:10:29.116Z,100581.09
2023-05-10T05:12:55.642Z,100574.63
2023-05-10T05:15:44.681Z,100603.00
2023-05-10T05:18:21.291Z,100599.56
2023-05-10T05:20:47.706Z,100594.81
2023-05-10T05:23:14.167Z,100591.28
2023-05-10T05:25:40.666Z,100588.56
2023-05-10T05:28:07.142Z,100585.94
2023-05-10T05:30:33.717Z,100595.41
2023-05-10T05:33:00.396Z,100577.03
2023-05-10T05:35:27.095Z,100582.75
2023-05-10T05:37:53.533Z,100571.31
2023-05-10T05:40:21.366Z,100568.09
2023-05-10T05:42:47.897Z,100574.94
2023-05-10T05:45:14.713Z,100584.88
2023-05-10T05:47:42.455Z,100589.41
2023-05-10T05:50:10.746Z,100559.19
2023-05-10T05:52:37.397Z,100566.28
2023-05-10T05:55:04.730Z,100557.38
2023-05-10T05:57:31.428Z,100565.19
2023-05-10T05:59:58.101Z,100545.13
2023-05-10T06:02:25.875Z,100550.25
2023-05-10T06:04:55.930Z,100542.44
2023-05-10T06:07:22.605Z,100563.44
2023-05-10T06:09:50.265Z,100572.00
2023-05-10T06:12:16.728Z,100583.28
2023-05-10T06:14:43.210Z,100581.78
2023-05-10T06:17:09.845Z,100575.19
2023-05-10T06:19:36.731Z,100578.06
2023-05-10T06:22:03.328Z,100573.78
2023-05-10T06:24:29.937Z,100571.03
2023-05-10T06:26:56.566Z,100578.22
2023-05-10T06:29:23.272Z,100569.50
2023-05-10T06:31:52.328Z,100581.72
2023-05-10T06:34:19.007Z,100569.22
2023-05-10T06:36:45.619Z,100548.53
2023-05-10T06:39:13.098Z,100568.19
2023-05-10T06:41:44.970Z,100544.56
2023-05-10T06:44:11.642Z,100559.00
2023-05-10T06:46:38.249Z,100555.44
2023-05-10T06:49:05.529Z,100557.91
2023-05-10T06:51:34.251Z,100563.97
2023-05-10T06:54:01.207Z,100561.56
2023-05-10T06:56:27.902Z,100539.56
2023-05-10T06:58:54.472Z,100568.66
2023-05-10T07:01:21.024Z,100580.47
2023-05-10T07:03:47.511Z,100558.13
2023-05-10T07:06:29.282Z,100575.06
2023-05-10T07:08:59.141Z,100574.13
2023-05-10T07:11:25.815Z,100553.28
2023-05-10T07:13:52.252Z,100574.50
2023-05-10T07:16:18.728Z,100558.69
2023-05-10T07:18:45.692Z,100557.03
2023-05-10T07:21:12.251Z,100558.47
2023-05-10T07:23:38.787Z,100551.38
2023-05-10T07:26:08.061Z,100561.72
2023-05-10T07:28:38.667Z,100559.75
2023-05-10T07:31:05.630Z,100523.88
2023-05-10T07:33:32.153Z,100528.19
2023-05-10T07:35:58.951Z,100546.31
2023-05-10T07:38:25.703Z,100521.31
2023-05-10T07:40:55.486Z,100557.72
2023-05-10T07:43:22.301Z,100534.44
2023-05-10T07:45:49.326Z,100553.56
2023-05-10T07:48:16.125Z,100537.38
2023-05-10T07:50:42.547Z,100559.31
2023-05-10T07:53:11.624Z,100558.31
2023-05-10T07:55:41.885Z,100549.16
2023-05-10T07:58:08.318Z,100557.38
2023-05-10T08:00:35.030Z,100551.31
2023-05-10T08:03:01.628Z,100557.47
2023-05-10T08:05:28.450Z,100515.88
2023-05-10T08:07:54.859Z,100553.41
2023-05-10T08:10:26.101Z,100518.38
2023-05-10T08:12:53.087Z,100518.19
2023-05-10T08:15:19.976Z,100552.16
2023-05-10T08:17:46.879Z,100525.47
2023-05-10T08:20:17.834Z,100529.03
2023-05-10T08:22:44.396Z,100532.97
2023-05-10T08:25:11.149Z,100547.03
2023-05-10T08:27:37.971Z,100555.38
2023-05-10T08:30:57.021Z,100511.94
2023-05-10T08:33:23.788Z,100551.13
2023-05-10T08:35:59.757Z,100558.69
2023-05-10T08:38:27.090Z,100538.06
2023-05-10T08:40:57.674Z,100565.91
2023-05-10T08:43:29.337Z,100534.50
2023-05-10T08:45:59.780Z,100524.75
2023-05-10T08:48:30.595Z,100560.88
2023-05-10T08:51:00.736Z,100523.84
2023-05-10T08:53:28.441Z,100533.56
2023-05-10T08:55:55.497Z,100531.97
2023-05-10T08:58:22.045Z,100551.97
2023-05-10T09:00:51.916Z,100542.16
2023-05-10T09:03:19.893Z,100531.97
2023-05-10T09:05:46.920Z,100529.47
2023-05-10T09:08:15.472Z,100553.41
2023-05-10T09:10:48.434Z,100563.72
2023-05-10T09:13:16.665Z,100539.50
2023-05-10T09:15:45.357Z,100539.81
2023-05-10T09:18:12.263Z,100556.13
2023-05-10T09:20:38.968Z,100563.06
2023-05-10T09:23:06.100Z,100541.66
2023-05-10T09:25:35.730Z,100533.16
2023-05-10T09:28:02.620Z,100559.97
2023-05-10T09:30:33.146Z,100535.56
2023-05-10T09:33:00.912Z,100532.72
2023-05-10T09:35:33.164Z,100552.88
2023-05-10T09:38:03.429Z,100575.94
2023-05-10T09:40:31.134Z,100569.50
2023-05-10T09:43:07.304Z,100562.69
2023-05-10T09:45:38.287Z,100562.69
2023-05-10T09:48:08.108Z,100555.59
2023-05-10T09:50:35.474Z,100576.63
2023-05-10T09:53:04.772Z,100535.25
2023-05-10T09:55:45.133Z,100572.69
2023-05-10T09:58:14.714Z,100531.69
2023-05-10T10:00:42.723Z,100569.22
2023-05-10T10:03:18.423Z,100557.19
2023-05-10T10:05:46.300Z,100571.75
2023-05-10T10:08:13.827Z,100561.03
2023-05-10T10:10:47.214Z,100562.56
2023-05-10T10:13:14.252Z,100566.69
2023-05-10T10:15:44.111Z,100554.66
2023-05-10T10:18:14.492Z,100559.91
2023-05-10T10:20:41.670Z,100545.78
2023-05-10T10:23:09.127Z,100569.59
2023-05-10T10:25:36.380Z,100550.47
2023-05-10T10:28:17.398Z,100543.63
2023-05-10T10:30:46.980Z,100558.97
2023-05-10T10:33:34.828Z,100547.66
2023-05-10T10:36:03.600Z,100543.94
2023-05-10T10:39:00.256Z,100562.69
2023-05-10T10:41:34.129Z,100562.19
2023-05-10T10:44:26.825Z,100559.69
2023-05-10T10:47:24.356Z,100551.78
2023-05-10T10:49:53.188Z,100561.03
2023-05-10T10:52:38.225Z,100559.69
2023-05-10T10:55:12.719Z,100567.53
2023-05-10T10:57:42.384Z,100559.22
2023-05-10T11:00:29.165Z,100554.31
2023-05-10T11:03:07.785Z,100550.03
2023-05-10T11:05:35.529Z,100555.34
2023-05-10T11:08:09.859Z,100547.72
2023-05-10T11:10:38.017Z,100546.94
2023-05-10T11:13:06.997Z,100550.69
2023-05-10T11:15:49.683Z,100546.56
2023-05-10T11:18:25.844Z,100537.41
2023-05-10T11:20:57.506Z,100546.63
2023-05-10T11:23:30.181Z,100548.16
2023-05-10T11:25:56.889Z,100551.66
2023-05-10T11:28:23.986Z,100536.97
2023-05-10T11:30:50.914Z,100529.69
2023-05-10T11:33:19.136Z,100532.72
2023-05-10T11:35:45.868Z,100533.69
2023-05-10T11:38:14.307Z,100525.47
2023-05-10T11:40:41.940Z,100547.16
2023-05-10T11:43:11.416Z,100545.34
2023-05-10T11:51:49.708Z,100544.38
2023-05-10T11:54:24.145Z,100538.28
2023-05-10T12:16:16.830Z,100551.63
2023-05-10T12:19:11.613Z,100514.16
2023-05-10T12:22:46.261Z,100522.53
2023-05-10T12:29:20.409Z,100540.25
2023-05-10T12:39:04.130Z,100539.69
2023-05-10T12:41:51.856Z,100531.88
2023-05-10T13:03:52.632Z,100553.84
2023-05-10T13:06:18.992Z,100559.09
2023-05-10T13:08:51.008Z,100553.25
2023-05-10T13:11:21.232Z,100547.31
2023-05-10T13:13:47.876Z,100531.84
2023-05-10T13:16:19.551Z,100537.09
2023-05-10T13:18:46.161Z,100539.06
2023-05-10T13:21:14.055Z,100554.34
2023-05-10T13:23:43.410Z,100554.34
2023-05-10T13:26:21.260Z,100533.75
2023-05-10T13:38:25.975Z,100521.25
2023-05-10T13:40:55.063Z,100544.72
2023-05-10T13:43:23.162Z,100501.78
2023-05-10T13:45:49.738Z,100526.47
2023-05-10T13:48:16.639Z,100535.81
2023-05-10T13:50:45.485Z,100513.63
2023-05-10T13:53:12.361Z,100516.00
2023-05-10T13:55:43.576Z,100525.69
2023-05-10T13:59:17.914Z,100540.91
2023-05-10T14:01:48.246Z,100511.09
2023-05-10T14:04:14.809Z,100533.03
2023-05-10T14:06:41.680Z,100534.28
2023-05-10T14:09:22.557Z,100501.97
2023-05-10T14:12:06.449Z,100520.97
2023-05-10T14:14:33.582Z,100503.16
2023-05-10T14:17:00.424Z,100514.09
2023-05-10T14:19:35.032Z,100498.78
2023-05-10T14:22:01.528Z,100511.97
2023-05-10T14:24:28.036Z,100504.69
2023-05-10T14:26:57.662Z,100519.47
2023-05-10T14:29:24.485Z,100511.28
2023-05-10T14:32:06.995Z,100544.00
2023-05-10T14:34:33.889Z,100522.53
2023-05-10T14:37:00.380Z,100509.91
2023-05-10T14:39:26.816Z,100536.63
2023-05-10T14:41:53.627Z,100528.94
2023-05-10T14:44:20.495Z,100514.28
2023-05-10T14:46:47.456Z,100521.63
2023-05-10T14:49:23.350Z,100492.06
2023-05-10T14:52:09.661Z,100518.34
2023-05-10T14:54:36.239Z,100506.47
2023-05-10T14:57:02.673Z,100530.06
2023-05-10T14:59:29.179Z,100519.69
2023-05-10T15:01:56.664Z,100521.72
2023-05-10T15:04:28.366Z,100510.75
2023-05-10T15:07:00.217Z,100517.34
2023-05-10T15:09:28.554Z,100502.19
2023-05-10T15:11:55.961Z,100511.91
2023-05-10T15:14:23.520Z,100516.75
2023-05-10T15:16:58.904Z,100542.25
2023-05-10T15:19:25.439Z,100527.16
2023-05-10T15:21:51.900Z,100534.41
2023-05-10T15:24:19.333Z,100535.13
2023-05-10T15:26:48.705Z,100515.16
2023-05-10T15:29:20.973Z,100532.72
2023-05-10T15:31:52.099Z,100543.66
2023-05-10T15:34:22.211Z,100510.81
2023-05-10T15:37:14.263Z,100546.22
2023-05-10T15:39:41.864Z,100532.16
2023-05-10T15:42:08.627Z,100528.59
2023-05-10T15:44:36.229Z,100503.50
2023-05-10T15:47:03.833Z,100535.06
2023-05-10T15:49:31.442Z,100536.03
2023-05-10T15:51:58.062Z,100537.75
2023-05-10T15:54:24.523Z,100537.47
2023-05-10T15:56:50.960Z,100529.81
2023-05-10T15:59:17.471Z,100545.13
2023-05-10T16:01:44.016Z,100529.25
2023-05-10T16:04:10.481Z,100533.53
2023-05-10T16:06:38.095Z,100519.63
2023-05-10T16:09:04.880Z,100523.00
2023-05-10T16:11:31.608Z,100531.16
2023-05-10T16:19:54.365Z,100531.88
2023-05-10T16:27:01.502Z,100543.84
2023-05-10T16:33:30.537Z,100564.16
2023-05-10T16:36:39.550Z,100572.78
2023-05-10T16:54:43.044Z,100583.13
2023-05-10T16:57:09.988Z,100588.34
2023-05-10T16:59:36.914Z,100611.38
2023-05-10T17:02:03.786Z,100601.28
2023-05-10T17:04:34.066Z,100595.63
2023-05-10T17:07:00.722Z,100626.22
2023-05-10T17:09:27.314Z,100628.69
2023-05-10T17:11:57.893Z,100593.78
2023-05-10T17:14:30.350Z,100614.00
2023-05-10T17:16:57.099Z,100596.91
2023-05-10T17:19:26.303Z,100636.22
2023-05-10T17:21:53.159Z,100608.47
2023-05-10T17:24:19.618Z,100639.91
2023-05-10T17:26:46.175Z,100609.53
2023-05-10T17:29:14.142Z,100619.38
2023-05-10T17:31:46.571Z,100617.31
2023-05-10T17:34:13.141Z,100631.72
2023-05-10T17:36:39.997Z,100614.28
2023-05-10T17:39:14.478Z,100628.34
2023-05-10T17:42:02.771Z,100665.22
2023-05-10T17:44:36.821Z,100641.94
2023-05-10T17:47:03.719Z,100664.69
2023-05-10T17:49:30.458Z,100646.03
2023-05-10T17:51:57.024Z,100673.19
2023-05-10T17:54:29.504Z,100644.81
2023-05-10T17:57:06.011Z,100646.47
2023-05-10T17:59:41.823Z,100649.53
2023-05-10T18:02:08.650Z,100663.22
2023-05-10T18:04:37.848Z,100687.91
2023-05-10T18:07:04.752Z,100685.00
2023-05-10T18:09:31.869Z,100690.13
2023-05-10T18:12:04.709Z,100647.91
2023-05-10T18:14:40.738Z,100659.47
2023-05-10T18:17:09.402Z,100680.19
2023-05-10T18:19:36.234Z,100672.50
2023-05-10T18:22:03.238Z,100661.31
2023-05-10T18:27:09.175Z,100696.66
2023-05-10T18:29:48.254Z,100690.03
2023-05-10T18:32:15.008Z,100695.69
2023-05-10T18:34:41.617Z,100720.66
2023-05-10T18:37:09.697Z,100701.66
2023-05-10T18:39:37.390Z,100685.47
2023-05-10T18:42:05.316Z,100712.91
2023-05-10T18:44:31.986Z,100699.06
2023-05-10T18:46:59.421Z,100703.19
2023-05-10T18:49:27.541Z,100727.66
2023-05-10T18:52:00.628Z,100691.97
2023-05-10T18:54:27.559Z,100722.09
2023-05-10T18:56:54.257Z,100708.84
2023-05-10T18:59:20.861Z,100742.75
2023-05-10T19:01:49.476Z,100733.44
2023-05-10T19:04:17.492Z,100755.34
2023-05-10T19:06:44.360Z,100748.94
2023-05-10T19:09:13.312Z,100736.63
2023-05-10T19:11:41.126Z,100752.25
2023-05-10T19:14:07.842Z,100750.88
2023-05-10T19:16:34.738Z,100773.66
2023-05-10T19:19:02.144Z,100741.72
2023-05-10T19:21:29.199Z,100752.47
2023-05-10T19:23:58.389Z,100758.22
2023-05-10T19:26:25.051Z,100749.44
2023-05-10T19:28:52.623Z,100750.59
2023-05-10T19:31:20.219Z,100738.38
2023-05-10T19:33:47.274Z,100777.53
2023-05-10T19:36:13.993Z,100765.19
2023-05-10T19:38:40.738Z,100761.88
2023-05-10T19:41:07.412Z,100785.16
2023-05-10T19:43:40.443Z,100770.41
2023-05-10T19:46:09.032Z,100769.72
2023-05-10T19:48:36.070Z,100748.50
2023-05-10T19:51:08.651Z,100785.13
2023-05-10T19:53:36.933Z,100745.38
2023-05-10T19:56:07.335Z,100767.50
2023-05-10T19:58:38.019Z,100764.22
2023-05-10T20:01:11.338Z,100780.84
2023-05-10T20:03:38.306Z,100772.75
2023-05-10T20:06:05.465Z,100772.63
2023-05-10T20:08:34.556Z,100762.16
2023-05-10T20:11:04.062Z,100799.47
2023-05-10T20:13:33.512Z,100762.84
2023-05-10T20:16:00.567Z,100797.34
2023-05-10T20:18:27.307Z,100772.66
2023-05-10T20:20:54.943Z,100812.84
2023-05-10T20:23:22.478Z,100791.63
2023-05-10T20:25:51.683Z,100785.81
2023-05-10T20:28:23.877Z,100768.75
2023-05-10T20:30:55.002Z,100772.72
2023-05-10T20:33:22.711Z,100810.50
2023-05-10T20:35:50.377Z,100795.75
2023-05-10T20:38:18.293Z,100798.19
2023-05-10T20:40:44.954Z,100812.72
2023-05-10T20:43:11.523Z,100808.88
2023-05-10T20:45:38.120Z,100812.72
2023-05-10T20:48:05.124Z,100794.09
2023-05-10T20:50:31.799Z,100790.97
2023-05-10T20:52:58.467Z,100788.16
2023-05-10T20:55:25.020Z,100779.19
2023-05-10T20:57:51.732Z,100783.88
2023-05-10T21:00:18.613Z,100822.94
2023-05-10T21:02:46.530Z,100806.91
2023-05-10T21:05:13.229Z,100797.81
2023-05-10T21:07:39.919Z,100813.16
2023-05-10T21:10:08.213Z,100824.78
2023-05-10T21:12:34.753Z,100806.34
2023-05-10T21:15:01.296Z,100819.84
2023-05-10T21:17:27.778Z,100816.44
2023-05-10T21:19:54.329Z,100798.69
2023-05-10T21:22:20.859Z,100820.38
2023-05-10T21:24:47.347Z,100820.63
2023-05-10T21:27:13.799Z,100822.91
2023-05-10T21:29:40.294Z,100815.38
2023-05-10T21:32:06.801Z,100829.91
2023-05-10T21:34:33.780Z,100821.34
2023-05-10T21:37:00.361Z,100820.63
2023-05-10T21:39:26.844Z,100837.22
2023-05-10T21:41:53.763Z,100820.03
2023-05-10T21:44:20.268Z,100813.63
2023-05-10T21:46:46.743Z,100827.09
2023-05-10T21:49:13.237Z,100816.97
2023-05-10T21:51:39.742Z,100826.56
2023-05-10T21:54:06.358Z,100817.69
2023-05-10T21:56:32.789Z,100832.31
2023-05-10T21:58:59.261Z,100815.00
2023-05-10T22:01:27.510Z,100826.94
2023-05-10T22:03:54.125Z,100822.78
2023-05-10T22:06:20.585Z,100827.13
2023-05-10T22:08:47.044Z,100831.00
2023-05-10T22:11:13.549Z,100846.78
2023-05-10T22:13:40.040Z,100846.97
2023-05-10T22:16:06.966Z,100820.16
2023-05-10T22:18:33.463Z,100847.78
2023-05-10T22:21:00.124Z,100840.84
2023-05-10T22:23:26.621Z,100848.50
2023-05-10T22:25:53.144Z,100839.28
2023-05-10T22:28:19.654Z,100832.66
2023-05-10T22:30:46.207Z,100855.06
2023-05-10T22:33:12.714Z,100852.72
2023-05-10T22:35:39.182Z,100840.78
2023-05-10T22:38:05.631Z,100835.56
2023-05-10T22:40:32.230Z,100857.00
2023-05-10T22:42:58.763Z,100847.16
2023-05-10T22:45:25.793Z,100838.91
2023-05-10T22:47:52.454Z,100843.03
2023-05-10T22:50:19.346Z,100853.97
2023-05-10T22:52:46.374Z,100842.88
2023-05-10T22:55:12.765Z,100853.97
2023-05-10T22:57:39.287Z,100855.78
2023-05-10T23:00:06.487Z,100839.28
2023-05-10T23:02:33.194Z,100839.25
2023-05-10T23:04:59.702Z,100830.81
2023-05-10T23:07:26.185Z,100848.75
2023-05-10T23:09:52.629Z,100851.63
2023-05-10T23:12:19.166Z,100849.63
2023-05-10T23:14:46.670Z,100850.84
2023-05-10T23:17:13.592Z,100852.00
2023-05-10T23:19:40.075Z,100842.84
2023-05-10T23:22:06.583Z,100844.00
2023-05-10T23:24:33.112Z,100841.50
2023-05-10T23:26:59.572Z,100845.66
2023-05-10T23:29:26.736Z,100840.88
2023-05-10T23:31:53.424Z,100843.09
2023-05-10T23:34:19.959Z,100849.28
2023-05-10T23:36:46.550Z,100850.66
2023-05-10T23:39:13.548Z,100856.44
2023-05-10T23:41:40.021Z,100839.16
2023-05-10T23:44:06.633Z,100853.53
2023-05-10T23:46:33.057Z,100861.34
2023-05-10T23:48:59.521Z,100843.03
2023-05-10T23:51:26.092Z,100847.38
2023-05-10T23:53:52.540Z,100849.81
2023-05-10T23:56:19.004Z,100848.84
2023-05-10T23:58:46.407Z,100859.34
